Time;durP1;ratioP1;P1;durP2;ratioP2;P2;SDS_P1;SDS_P2;PMS_P1;PMS_P2;Temp;Humidity;BMP_temperature;BMP_pressure;BME280_temperature;BME280_humidity;BME280_pressure;Samples;Min_cycle;Max_cycle;Signal;HPM_P1;HPM_P2
2021/04/22 00:00:13;;;;;;;;;;;;;;;21.59;30.16;98167.91;5051868;28;1329;-87
2021/04/22 00:02:38;;;;;;;;;;;;;;;21.58;30.14;98164.28;5085500;28;1142;-87
2021/04/22 00:05:10;;;;;;;;;;;;;;;21.59;30.35;98165.06;5068516;28;1975;-87
2021/04/22 00:07:36;;;;;;;;;;;;;;;21.50;30.43;98173.38;5069847;28;762;-87
2021/04/22 00:10:01;;;;;;;;;;;;;;;21.44;30.60;98175.13;5067252;28;1324;-87
2021/04/22 00:12:27;;;;;;;;;;;;;;;21.30;30.80;98177.06;5068923;28;753;-87
2021/04/22 00:14:52;;;;;;;;;;;;;;;21.45;30.61;98179.56;5051452;28;1363;-87
2021/04/22 00:17:18;;;;;;;;;;;;;;;22.00;29.98;98181.47;5052454;28;1281;-88
2021/04/22 00:19:43;;;;;;;;;;;;;;;22.27;29.67;98180.41;5052667;28;1186;-87
2021/04/22 00:22:09;;;;;;;;;;;;;;;22.12;29.49;98182.81;5051981;28;1268;-86
2021/04/22 00:24:34;;;;;;;;;;;;;;;21.77;30.28;98176.00;5052555;28;1883;-87
2021/04/22 00:26:59;;;;;;;;;;;;;;;21.50;30.37;98179.84;5067913;28;844;-88
2021/04/22 00:29:25;;;;;;;;;;;;;;;21.72;30.10;98180.16;5069086;28;1312;-88
2021/04/22 00:31:50;;;;;;;;;;;;;;;21.58;30.02;98174.81;5068012;28;1427;-87
2021/04/22 00:34:16;;;;;;;;;;;;;;;21.61;30.10;98168.28;5068317;28;1008;-87
2021/04/22 00:36:41;;;;;;;;;;;;;;;21.66;30.05;98167.75;5068909;28;825;-88
2021/04/22 00:39:07;;;;;;;;;;;;;;;21.63;30.50;98171.47;5069627;28;1296;-87
2021/04/22 00:41:32;;;;;;;;;;;;;;;21.62;30.49;98164.22;5068036;28;1366;-87
2021/04/22 00:43:58;;;;;;;;;;;;;;;21.64;30.33;98161.72;5051996;28;1902;-88
2021/04/22 00:46:24;;;;;;;;;;;;;;;21.45;30.94;98165.41;5068426;28;1391;-87
2021/04/22 00:48:49;;;;;;;;;;;;;;;21.58;30.51;98164.28;5068820;28;1255;-87
2021/04/22 00:51:15;;;;;;;;;;;;;;;21.55;30.57;98165.19;5068337;28;770;-87
2021/04/22 00:53:41;;;;;;;;;;;;;;;21.69;30.16;98169.69;5051457;28;1366;-87
2021/04/22 00:56:08;;;;;;;;;;;;;;;21.62;30.28;98177.56;5051939;28;1412;-87
2021/04/22 00:58:34;;;;;;;;;;;;;;;21.54;30.38;98171.25;5052016;28;1167;-87
2021/04/22 01:01:00;;;;;;;;;;;;;;;21.47;30.31;98172.25;5062721;28;1388;-87
2021/04/22 01:03:25;;;;;;;;;;;;;;;21.91;30.30;98169.16;5068796;28;1941;-86
2021/04/22 01:05:53;;;;;;;;;;;;;;;22.25;29.54;98172.34;5051620;28;1296;-87
2021/04/22 01:08:18;;;;;;;;;;;;;;;22.35;29.11;98173.31;5069250;28;645;-86
2021/04/22 01:10:45;;;;;;;;;;;;;;;21.79;29.50;98160.13;5067965;28;1338;-87
2021/04/22 01:13:12;;;;;;;;;;;;;;;21.60;29.96;98169.50;5068492;28;1023;-87
2021/04/22 01:15:37;;;;;;;;;;;;;;;21.54;29.40;98172.06;5067752;28;909;-87
2021/04/22 01:18:04;;;;;;;;;;;;;;;21.70;29.79;98176.16;5051861;28;1249;-87
2021/04/22 01:20:30;;;;;;;;;;;;;;;22.10;29.99;98171.91;5051921;28;785;-87
2021/04/22 01:22:56;;;;;;;;;;;;;;;22.33;29.32;98172.97;5051387;28;1399;-87
2021/04/22 01:25:23;;;;;;;;;;;;;;;22.18;29.19;98178.22;5051960;28;1988;-87
2021/04/22 01:27:48;;;;;;;;;;;;;;;21.85;29.31;98178.19;5051663;28;861;-87
2021/04/22 01:30:22;;;;;;;;;;;;;;;21.64;29.64;98167.38;5067955;28;893;-87
2021/04/22 01:32:48;;;;;;;;;;;;;;;21.67;29.45;98177.84;5051130;28;1272;-87
2021/04/22 01:35:14;;;;;;;;;;;;;;;21.63;29.51;98171.47;5035170;28;1292;-88
2021/04/22 01:37:40;;;;;;;;;;;;;;;21.64;29.98;98173.03;5068949;28;698;-86
2021/04/22 01:40:09;;;;;;;;;;;;;;;21.60;30.06;98178.00;5051781;28;723;-87
2021/04/22 01:42:34;;;;;;;;;;;;;;;21.63;29.72;98177.13;5066684;28;1313;-87
2021/04/22 01:45:00;;;;;;;;;;;;;;;21.67;29.77;98183.50;5050841;28;1969;-87
2021/04/22 01:47:26;;;;;;;;;;;;;;;21.55;29.94;98178.50;5052154;28;1187;-87
2021/04/22 01:49:51;;;;;;;;;;;;;;;21.57;29.89;98178.88;5051341;28;1299;-87
2021/04/22 01:52:17;;;;;;;;;;;;;;;21.48;30.08;98176.66;5051181;28;1216;-87
2021/04/22 01:54:42;;;;;;;;;;;;;;;21.54;30.06;98179.75;5050831;28;1360;-88
2021/04/22 01:57:08;;;;;;;;;;;;;;;21.88;30.00;98181.38;5050732;28;1320;-86
2021/04/22 01:59:33;;;;;;;;;;;;;;;22.15;29.44;98190.44;5067842;28;937;-87
2021/04/22 02:01:59;;;;;;;;;;;;;;;22.41;28.79;98179.22;5067853;28;940;-87
2021/04/22 02:04:24;;;;;;;;;;;;;;;21.79;29.47;98179.97;5051535;28;1957;-87
2021/04/22 02:06:50;;;;;;;;;;;;;;;21.68;29.70;98179.44;5067506;28;642;-87
2021/04/22 02:09:15;;;;;;;;;;;;;;;21.56;29.74;98180.13;5034685;28;1327;-87
2021/04/22 02:11:41;;;;;;;;;;;;;;;21.56;29.51;98185.78;5050864;28;1304;-87
2021/04/22 02:14:06;;;;;;;;;;;;;;;21.55;29.78;98184.19;5051641;28;1342;-87
2021/04/22 02:16:32;;;;;;;;;;;;;;;21.58;29.81;98186.13;5050504;28;1310;-87
2021/04/22 02:18:57;;;;;;;;;;;;;;;21.49;30.04;98183.09;5068375;28;633;-87
2021/04/22 02:21:22;;;;;;;;;;;;;;;21.66;29.73;98193.25;5052047;28;1194;-87
2021/04/22 02:23:48;;;;;;;;;;;;;;;21.55;29.94;98192.66;5055722;28;1957;-88
2021/04/22 02:26:16;;;;;;;;;;;;;;;21.54;30.10;98193.91;5069953;28;1269;-87
2021/04/22 02:28:42;;;;;;;;;;;;;;;21.52;29.93;98191.53;5054410;28;1335;-87
2021/04/22 02:31:07;;;;;;;;;;;;;;;21.43;30.32;98185.66;5071089;28;1228;-87
2021/04/22 02:33:33;;;;;;;;;;;;;;;21.37;30.11;98183.81;5054547;28;1285;-87
2021/04/22 02:35:59;;;;;;;;;;;;;;;21.39;30.52;98184.16;5054222;28;1486;-87
2021/04/22 02:38:24;;;;;;;;;;;;;;;22.04;29.75;98189.88;5071700;28;890;-87
2021/04/22 02:40:50;;;;;;;;;;;;;;;22.25;29.20;98192.19;5070120;28;918;-87
2021/04/22 02:43:16;;;;;;;;;;;;;;;22.15;28.95;98195.31;5054495;28;1292;-87
2021/04/22 02:45:43;;;;;;;;;;;;;;;21.80;29.70;98198.53;5054179;28;1950;-87
2021/04/22 02:48:08;;;;;;;;;;;;;;;21.67;29.70;98200.50;5069458;28;1372;-75
2021/04/22 02:50:35;;;;;;;;;;;;;;;21.68;29.49;98196.41;5070764;28;873;-86
2021/04/22 02:53:01;;;;;;;;;;;;;;;21.50;29.70;98196.03;5053729;28;603;-87
2021/04/22 02:55:26;;;;;;;;;;;;;;;21.46;30.20;98198.16;5070391;28;1007;-88
2021/04/22 02:57:52;;;;;;;;;;;;;;;21.46;29.92;98198.16;5053567;28;1353;-87
2021/04/22 03:00:19;;;;;;;;;;;;;;;21.52;30.12;98204.91;5037662;28;1297;-86
2021/04/22 03:02:49;;;;;;;;;;;;;;;21.47;30.08;98196.91;5070830;28;1306;-88
2021/04/22 03:05:14;;;;;;;;;;;;;;;21.46;29.98;98201.00;5070130;28;1898;-87
2021/04/22 03:07:41;;;;;;;;;;;;;;;21.40;30.00;98199.91;5070507;28;1375;-87
2021/04/22 03:10:06;;;;;;;;;;;;;;;21.43;30.09;98207.53;5054315;28;1125;-87
2021/04/22 03:12:32;;;;;;;;;;;;;;;21.56;29.84;98205.63;5070745;28;923;-85
2021/04/22 03:14:57;;;;;;;;;;;;;;;21.52;29.84;98210.56;5070053;28;1008;-86
2021/04/22 03:17:23;;;;;;;;;;;;;;;21.92;29.60;98204.75;5053320;28;1320;-87
2021/04/22 03:19:48;;;;;;;;;;;;;;;22.27;28.80;98215.19;5070181;28;1315;-87
2021/04/22 03:22:14;;;;;;;;;;;;;;;22.39;28.77;98216.53;5070638;28;664;-87
2021/04/22 03:24:41;;;;;;;;;;;;;;;22.03;28.78;98210.97;5070139;28;1905;-88
2021/04/22 03:27:08;;;;;;;;;;;;;;;21.87;29.14;98213.78;5054110;28;1077;-87
2021/04/22 03:29:33;;;;;;;;;;;;;;;21.64;29.30;98209.84;5037355;28;1365;-87
2021/04/22 03:31:59;;;;;;;;;;;;;;;21.60;29.78;98223.28;5051881;28;1151;-86
2021/04/22 03:34:24;;;;;;;;;;;;;;;21.56;29.75;98222.59;5053629;28;1163;-87
2021/04/22 03:36:50;;;;;;;;;;;;;;;21.50;30.23;98218.66;5052734;28;831;-87
2021/04/22 03:39:16;;;;;;;;;;;;;;;21.50;30.23;98224.34;5053294;28;1233;-87
2021/04/22 03:41:42;;;;;;;;;;;;;;;21.45;30.22;98222.84;5049345;28;1349;-87
2021/04/22 03:44:08;;;;;;;;;;;;;;;21.42;30.33;98228.56;5050161;28;1965;-87
2021/04/22 03:46:34;;;;;;;;;;;;;;;21.48;30.17;98226.81;5049970;28;1290;-88
2021/04/22 03:49:00;;;;;;;;;;;;;;;21.47;29.94;98233.72;5049828;28;1260;-87
2021/04/22 03:51:26;;;;;;;;;;;;;;;21.47;30.06;98230.91;5068764;28;1394;-87
2021/04/22 03:53:51;;;;;;;;;;;;;;;21.39;30.03;98235.09;5053736;28;1189;-87
2021/04/22 03:56:18;;;;;;;;;;;;;;;21.54;30.16;98236.38;5069416;28;968;-87
2021/04/22 03:58:43;;;;;;;;;;;;;;;21.49;29.99;98239.72;5052715;28;1235;-87
2021/04/22 04:01:09;;;;;;;;;;;;;;;21.36;30.18;98238.81;5052395;28;1191;-86
2021/04/22 04:03:34;;;;;;;;;;;;;;;21.47;30.10;98245.03;5048556;28;1883;-86
2021/04/22 04:06:00;;;;;;;;;;;;;;;21.95;29.26;98243.53;5047908;28;1127;-88
2021/04/22 04:08:25;;;;;;;;;;;;;;;22.35;28.69;98256.31;5048883;28;899;-88
2021/04/22 04:10:52;;;;;;;;;;;;;;;22.09;28.75;98254.53;5048876;28;861;-88
2021/04/22 04:13:26;;;;;;;;;;;;;;;21.78;29.25;98260.50;5033255;28;1409;-87
2021/04/22 04:15:52;;;;;;;;;;;;;;;21.64;29.43;98262.88;5047282;28;642;-86
2021/04/22 04:18:20;;;;;;;;;;;;;;;21.48;29.51;98255.94;5048062;28;768;-88
2021/04/22 04:20:46;;;;;;;;;;;;;;;21.49;29.47;98265.22;5047263;28;1134;-87
2021/04/22 04:23:14;;;;;;;;;;;;;;;21.53;29.81;98268.78;5031980;28;1017;-87
2021/04/22 04:25:40;;;;;;;;;;;;;;;21.47;29.83;98262.03;5048056;28;1951;-88
2021/04/22 04:28:08;;;;;;;;;;;;;;;21.51;30.00;98265.59;5032112;28;1127;-88
2021/04/22 04:30:34;;;;;;;;;;;;;;;21.44;29.87;98271.38;5046981;28;1185;-86
2021/04/22 04:33:00;;;;;;;;;;;;;;;21.51;29.91;98271.25;5031257;28;1331;-87
2021/04/22 04:35:27;;;;;;;;;;;;;;;21.29;30.40;98277.31;5030530;28;1170;-88
2021/04/22 04:37:54;;;;;;;;;;;;;;;21.68;30.18;98275.72;5046969;28;914;-88
2021/04/22 04:40:19;;;;;;;;;;;;;;;22.02;29.71;98283.84;5046034;28;1320;-87
2021/04/22 04:42:45;;;;;;;;;;;;;;;22.21;28.89;98279.34;5047607;28;1164;-87
2021/04/22 04:45:11;;;;;;;;;;;;;;;21.84;29.39;98284.22;5029205;28;1910;-84
2021/04/22 04:47:37;;;;;;;;;;;;;;;21.83;29.46;98282.66;5021046;28;1288;-72
2021/04/22 04:50:04;;;;;;;;;;;;;;;21.93;29.57;98280.00;5040886;28;711;-80
2021/04/22 04:52:29;;;;;;;;;;;;;;;21.89;29.48;98290.63;5038695;28;1298;-78
2021/04/22 04:54:55;;;;;;;;;;;;;;;21.90;29.67;98286.53;5039512;28;866;-78
2021/04/22 04:57:20;;;;;;;;;;;;;;;22.02;29.35;98291.50;5039696;28;909;-79
2021/04/22 04:59:45;;;;;;;;;;;;;;;21.95;29.72;98286.03;5039311;28;674;-72
2021/04/22 05:02:11;;;;;;;;;;;;;;;22.10;29.69;98290.13;5039301;28;1139;-69
2021/04/22 05:04:36;;;;;;;;;;;;;;;22.14;29.26;98296.53;5039833;28;1906;-84
2021/04/22 05:07:02;;;;;;;;;;;;;;;22.11;29.42;98288.91;5045526;28;1150;-81
2021/04/22 05:09:27;;;;;;;;;;;;;;;22.06;29.62;98292.22;5068240;28;1140;-82
2021/04/22 05:11:53;;;;;;;;;;;;;;;22.18;29.38;98291.59;5068627;28;1232;-81
2021/04/22 05:14:18;;;;;;;;;;;;;;;20.38;29.38;98010.16;5069673;28;1256;-82
2021/04/22 05:16:44;;;;;;;;;;;;;;;22.12;29.29;98293.31;5067560;28;1189;-81
2021/04/22 05:19:09;;;;;;;;;;;;;;;22.17;29.48;98289.97;5069487;28;1204;-82
2021/04/22 05:21:35;;;;;;;;;;;;;;;22.01;29.58;98292.75;5068873;28;1118;-82
2021/04/22 05:24:00;;;;;;;;;;;;;;;22.12;29.21;98289.69;5069478;28;1914;-81
2021/04/22 05:26:26;;;;;;;;;;;;;;;21.96;29.68;98301.78;5069777;28;1224;-82
2021/04/22 05:28:53;;;;;;;;;;;;;;;22.23;29.36;98305.22;5068735;28;1182;-82
2021/04/22 05:31:18;;;;;;;;;;;;;;;22.16;29.55;98299.72;5067346;28;1283;-82
2021/04/22 05:33:44;;;;;;;;;;;;;;;22.19;29.30;98303.72;5079001;28;1018;-85
2021/04/22 05:36:09;;;;;;;;;;;;;;;22.18;29.44;98302.91;5069713;28;1280;-86
2021/04/22 05:38:35;;;;;;;;;;;;;;;21.98;29.85;98310.66;5068045;28;1178;-86
2021/04/22 05:41:00;;;;;;;;;;;;;;;22.04;29.55;98314.56;5085979;28;1166;-86
2021/04/22 05:43:26;;;;;;;;;;;;;;;21.98;29.32;98316.31;5084644;28;1976;-86
2021/04/22 05:45:51;;;;;;;;;;;;;;;21.95;29.62;98317.97;5068288;28;1278;-86
2021/04/22 05:48:17;;;;;;;;;;;;;;;21.94;29.45;98316.41;5069035;28;1204;-86
2021/04/22 05:50:42;;;;;;;;;;;;;;;21.94;29.43;98309.94;5068685;28;1318;-86
2021/04/22 05:53:08;;;;;;;;;;;;;;;21.94;29.46;98319.22;5064689;28;1275;-83
2021/04/22 05:55:33;;;;;;;;;;;;;;;21.77;29.75;98312.72;5076127;28;1083;-83
2021/04/22 05:57:59;;;;;;;;;;;;;;;21.87;29.68;98322.22;5074672;28;1142;-83
2021/04/22 06:00:25;;;;;;;;;;;;;;;21.97;29.53;98326.06;5073986;28;1301;-84
2021/04/22 06:02:51;;;;;;;;;;;;;;;21.83;29.53;98322.31;5096713;28;1166;-85
2021/04/22 06:05:16;;;;;;;;;;;;;;;21.85;29.60;98331.16;5078446;28;1960;-80
2021/04/22 06:07:42;;;;;;;;;;;;;;;21.86;29.42;98326.28;5071485;28;1220;-83
2021/04/22 06:10:08;;;;;;;;;;;;;;;21.78;29.56;98334.16;5053094;28;1350;-82
2021/04/22 06:12:33;;;;;;;;;;;;;;;21.87;29.33;98327.09;5050225;28;886;-86
2021/04/22 06:14:59;;;;;;;;;;;;;;;21.61;29.52;98328.88;5067785;28;642;-82
2021/04/22 06:17:24;;;;;;;;;;;;;;;21.63;29.60;98330.03;5064274;28;1085;-85
2021/04/22 06:19:50;;;;;;;;;;;;;;;21.76;29.12;98328.13;5065309;28;994;-85
2021/04/22 06:22:15;;;;;;;;;;;;;;;21.65;29.53;98332.41;5047372;28;1184;-85
2021/04/22 06:24:40;;;;;;;;;;;;;;;21.62;29.30;98321.97;5064850;28;1975;-85
2021/04/22 06:27:06;;;;;;;;;;;;;;;21.53;29.38;98331.06;5065878;28;766;-85
2021/04/22 06:29:31;;;;;;;;;;;;;;;21.51;29.56;98322.22;5048633;28;853;-83
2021/04/22 06:31:57;;;;;;;;;;;;;;;21.53;29.36;98331.06;5064417;28;638;-84
2021/04/22 06:34:23;;;;;;;;;;;;;;;22.03;29.37;98336.44;5064337;28;1142;-85
2021/04/22 06:36:49;;;;;;;;;;;;;;;22.27;29.19;98339.94;5063659;28;943;-85
2021/04/22 06:39:15;;;;;;;;;;;;;;;22.23;29.14;98333.56;5069296;28;1059;-84
2021/04/22 06:41:40;;;;;;;;;;;;;;;22.00;29.37;98331.63;5057712;28;1197;-84
2021/04/22 06:44:06;;;;;;;;;;;;;;;21.84;29.46;98335.22;5072289;28;1887;-85
2021/04/22 06:46:33;;;;;;;;;;;;;;;21.70;29.62;98335.53;5057852;28;1284;-83
2021/04/22 06:48:59;;;;;;;;;;;;;;;21.70;29.51;98335.53;5073555;28;1118;-83
2021/04/22 06:51:26;;;;;;;;;;;;;;;21.62;29.64;98334.09;5072046;28;1213;-85
2021/04/22 06:53:52;;;;;;;;;;;;;;;21.54;29.63;98338.31;5056181;28;1288;-82
2021/04/22 06:56:18;;;;;;;;;;;;;;;21.45;29.82;98336.09;5069724;28;1154;-84
2021/04/22 06:58:43;;;;;;;;;;;;;;;21.58;29.67;98344.72;5069524;28;1352;-84
2021/04/22 07:01:09;;;;;;;;;;;;;;;21.56;29.66;98347.97;5056580;28;1301;-85
2021/04/22 07:03:34;;;;;;;;;;;;;;;21.53;29.36;98350.88;5073181;28;1930;-82
2021/04/22 07:05:59;;;;;;;;;;;;;;;21.55;29.51;98351.22;5075043;28;1165;-84
2021/04/22 07:08:28;;;;;;;;;;;;;;;22.03;28.99;98347.75;5070875;28;1106;-84
2021/04/22 07:10:54;;;;;;;;;;;;;;;22.36;28.60;98348.63;5074157;28;1201;-83
2021/04/22 07:13:19;;;;;;;;;;;;;;;22.44;28.47;98354.13;5058023;28;1256;-85
2021/04/22 07:15:45;;;;;;;;;;;;;;;21.94;29.38;98349.59;5075010;28;1082;-83
2021/04/22 07:18:11;;;;;;;;;;;;;;;21.82;29.61;98357.53;5055823;28;1178;-85
2021/04/22 07:20:37;;;;;;;;;;;;;;;21.60;29.82;98359.22;5054861;28;1142;-83
2021/04/22 07:23:05;;;;;;;;;;;;;;;21.69;29.76;98361.47;5074229;28;1193;-83
2021/04/22 07:25:33;;;;;;;;;;;;;;;21.72;29.55;98361.41;5071886;28;1909;-84
2021/04/22 07:27:59;;;;;;;;;;;;;;;21.60;29.71;98359.22;5063799;28;647;-85
2021/04/22 07:30:25;;;;;;;;;;;;;;;21.56;30.04;98370.63;5063306;28;581;-84
2021/04/22 07:32:51;;;;;;;;;;;;;;;21.71;29.74;98365.47;5062957;28;1116;-85
2021/04/22 07:35:18;;;;;;;;;;;;;;;21.61;29.80;98366.50;5047205;28;1141;-85
2021/04/22 07:37:44;;;;;;;;;;;;;;;21.67;29.80;98363.94;5047013;28;1289;-85
2021/04/22 07:40:12;;;;;;;;;;;;;;;21.59;30.07;98368.94;5063883;28;818;-85
2021/04/22 07:42:37;;;;;;;;;;;;;;;21.59;30.00;98369.75;5046949;28;1172;-85
2021/04/22 07:45:03;;;;;;;;;;;;;;;21.55;30.15;98373.88;5062570;28;1902;-84
2021/04/22 07:47:29;;;;;;;;;;;;;;;21.66;29.70;98374.47;5030860;28;1249;-82
2021/04/22 07:49:54;;;;;;;;;;;;;;;21.64;29.85;98376.94;5029134;28;1298;-84
2021/04/22 07:52:21;;;;;;;;;;;;;;;21.63;29.89;98375.34;5062912;28;891;-85
2021/04/22 07:54:46;;;;;;;;;;;;;;;21.53;29.91;98376.34;5062688;28;851;-85
2021/04/22 07:57:11;;;;;;;;;;;;;;;21.59;29.81;98371.78;5066164;28;1087;-85
2021/04/22 07:59:37;;;;;;;;;;;;;;;21.66;29.69;98371.66;5072843;28;1173;-84
2021/04/22 08:02:03;;;;;;;;;;;;;;;21.62;29.85;98373.75;5083514;28;1293;-85
2021/04/22 08:04:29;;;;;;;;;;;;;;;21.67;30.42;98375.28;5072959;28;1975;-85
2021/04/22 08:06:54;;;;;;;;;;;;;;;22.25;29.70;98373.59;5049503;28;1220;-85
2021/04/22 08:09:20;;;;;;;;;;;;;;;22.57;29.15;98369.19;5054354;28;1169;-85
2021/04/22 08:11:46;;;;;;;;;;;;;;;22.09;29.53;98380.00;5072750;28;1176;-84
2021/04/22 08:14:14;;;;;;;;;;;;;;;21.96;29.51;98381.09;5067721;28;948;-85
2021/04/22 08:16:40;;;;;;;;;;;;;;;21.73;29.78;98368.66;5071716;28;1218;-85
2021/04/22 08:19:06;;;;;;;;;;;;;;;21.59;29.89;98383.09;5073665;28;1205;-84
2021/04/22 08:21:32;;;;;;;;;;;;;;;21.55;30.09;98373.88;5042102;28;1368;-85
2021/04/22 08:23:57;;;;;;;;;;;;;;;21.65;30.01;98375.69;5071546;28;1936;-85
2021/04/22 08:26:23;;;;;;;;;;;;;;;21.60;30.09;98376.19;5059974;28;1174;-85
2021/04/22 08:28:49;;;;;;;;;;;;;;;21.55;30.17;98374.69;5075684;28;1216;-85
2021/04/22 08:31:22;;;;;;;;;;;;;;;21.61;30.10;98377.03;5059069;28;1264;-85
2021/04/22 08:33:48;;;;;;;;;;;;;;;21.58;29.90;98375.84;5082732;28;1095;-86
2021/04/22 08:36:13;;;;;;;;;;;;;;;21.57;30.09;98371.44;5067492;28;1123;-85
2021/04/22 08:38:39;;;;;;;;;;;;;;;21.61;30.10;98377.81;5083698;28;784;-85
2021/04/22 08:41:04;;;;;;;;;;;;;;;21.64;29.79;98382.59;5067826;28;1279;-85
2021/04/22 08:43:31;;;;;;;;;;;;;;;21.61;29.82;98380.66;5083494;28;1910;-85
2021/04/22 08:45:57;;;;;;;;;;;;;;;21.51;30.21;98384.50;5084126;28;705;-86
2021/04/22 08:48:22;;;;;;;;;;;;;;;21.53;30.15;98374.31;5081722;28;938;-85
2021/04/22 08:50:48;;;;;;;;;;;;;;;21.46;30.26;98380.16;5082144;28;1008;-84
2021/04/22 08:53:16;;;;;;;;;;;;;;;21.54;29.85;98383.63;5079159;28;1051;-85
2021/04/22 08:55:41;;;;;;;;;;;;;;;21.51;30.59;98378.84;5056461;28;1221;-85
2021/04/22 08:58:07;;;;;;;;;;;;;;;22.26;29.81;98378.03;5056168;28;1210;-85
2021/04/22 09:00:59;;;;;;;;;;;;;;;22.41;29.46;98372.81;5072478;28;1236;-85
2021/04/22 09:03:27;;;;;;;;;;;;;;;21.93;29.98;98376.34;5065745;28;1274;-86
2021/04/22 09:05:53;;;;;;;;;;;;;;;21.61;30.14;98377.81;5066570;28;1907;-84
2021/04/22 09:08:20;;;;;;;;;;;;;;;21.72;30.38;98378.41;5054616;28;1194;-85
2021/04/22 09:10:49;;;;;;;;;;;;;;;21.64;30.29;98365.59;5071468;28;1243;-85
2021/04/22 09:13:16;;;;;;;;;;;;;;;21.61;30.13;98372.16;5031624;28;1167;-85
2021/04/22 09:15:42;;;;;;;;;;;;;;;21.56;30.36;98369.84;5061794;28;1044;-85
2021/04/22 09:18:09;;;;;;;;;;;;;;;21.66;30.08;98368.81;5045576;28;1247;-85
2021/04/22 09:20:45;;;;;;;;;;;;;;;21.62;30.33;98373.75;5062553;28;1009;-85
2021/04/22 09:23:14;;;;;;;;;;;;;;;21.57;29.91;98371.44;5045194;28;722;-84
2021/04/22 09:25:39;;;;;;;;;;;;;;;21.68;30.03;98365.53;5062870;28;1906;-85
2021/04/22 09:28:05;;;;;;;;;;;;;;;21.57;30.11;98365.75;5061550;28;972;-84
2021/04/22 09:30:34;;;;;;;;;;;;;;;21.58;30.24;98350.38;5044759;28;974;-84
2021/04/22 09:33:00;;;;;;;;;;;;;;;21.55;30.07;98368.22;5029136;28;1163;-85
2021/04/22 09:35:26;;;;;;;;;;;;;;;21.55;30.12;98363.38;5062823;28;981;-85
2021/04/22 09:37:52;;;;;;;;;;;;;;;21.96;30.01;98352.78;5062199;28;837;-85
2021/04/22 09:40:19;;;;;;;;;;;;;;;22.35;29.17;98358.38;5062080;28;930;-86
2021/04/22 09:42:45;;;;;;;;;;;;;;;22.04;29.59;98354.22;5045422;28;1156;-85
2021/04/22 09:45:11;;;;;;;;;;;;;;;21.79;30.01;98349.91;5044894;28;2009;-85
2021/04/22 09:47:36;;;;;;;;;;;;;;;21.65;30.06;98350.19;5043207;28;1150;-84
2021/04/22 09:50:02;;;;;;;;;;;;;;;21.61;30.22;98345.88;5059967;28;685;-82
2021/04/22 09:52:35;;;;;;;;;;;;;;;21.62;29.99;98350.31;5060023;28;647;-82
2021/04/22 09:55:01;;;;;;;;;;;;;;;21.67;29.71;98353.41;5059448;28;942;-77
2021/04/22 09:57:30;;;;;;;;;;;;;;;21.66;29.91;98342.50;5060768;28;957;-84
2021/04/22 09:59:56;;;;;;;;;;;;;;;21.56;30.26;98341.53;5060970;28;984;-84
2021/04/22 10:02:21;;;;;;;;;;;;;;;21.65;29.99;98350.19;5044746;28;860;-83
2021/04/22 10:04:47;;;;;;;;;;;;;;;21.62;30.03;98344.63;5042328;28;1902;-80
2021/04/22 10:07:32;;;;;;;;;;;;;;;21.47;30.28;98344.13;5042760;28;868;-81
2021/04/22 10:10:11;;;;;;;;;;;;;;;21.43;30.55;98349.84;5060955;28;1043;-81
2021/04/22 10:12:37;;;;;;;;;;;;;;;21.53;30.21;98337.50;5065249;28;1135;-82
2021/04/22 10:15:08;;;;;;;;;;;;;;;22.07;30.09;98339.16;5069246;28;1217;-82
2021/04/22 10:17:34;;;;;;;;;;;;;;;22.42;29.16;98345.25;5068444;28;1232;-83
2021/04/22 10:20:07;;;;;;;;;;;;;;;22.09;29.60;98345.19;5068468;28;1312;-84
2021/04/22 10:22:33;;;;;;;;;;;;;;;21.77;29.97;98341.06;5069202;28;1293;-84
2021/04/22 10:24:59;;;;;;;;;;;;;;;21.73;30.05;98340.34;5065322;28;1906;-84
2021/04/22 10:27:26;;;;;;;;;;;;;;;21.75;29.71;98346.34;5067329;28;1288;-82
2021/04/22 10:29:51;;;;;;;;;;;;;;;21.62;30.22;98355.97;5050363;28;1186;-84
2021/04/22 10:32:17;;;;;;;;;;;;;;;21.55;30.25;98337.06;5070267;28;1149;-84
2021/04/22 10:34:42;;;;;;;;;;;;;;;21.60;30.17;98339.38;5051036;28;1278;-84
2021/04/22 10:37:08;;;;;;;;;;;;;;;21.60;29.88;98330.91;5069334;28;1150;-83
2021/04/22 10:39:33;;;;;;;;;;;;;;;21.62;30.11;98336.94;5070259;28;1142;-82
2021/04/22 10:41:59;;;;;;;;;;;;;;;21.56;30.28;98335.84;5069903;28;1205;-83
2021/04/22 10:44:25;;;;;;;;;;;;;;;21.53;30.19;98340.34;5070795;28;1918;-83
2021/04/22 10:46:51;;;;;;;;;;;;;;;21.57;30.21;98357.28;5073346;28;1149;-84
2021/04/22 10:49:16;;;;;;;;;;;;;;;21.72;29.92;98344.41;5073421;28;1209;-82
2021/04/22 10:51:42;;;;;;;;;;;;;;;21.69;29.75;98352.97;5079664;28;1228;-84
2021/04/22 10:54:08;;;;;;;;;;;;;;;21.56;29.85;98350.03;5082905;28;773;-83
2021/04/22 10:56:33;;;;;;;;;;;;;;;21.61;29.92;98338.19;5082750;28;1081;-83
2021/04/22 10:58:59;;;;;;;;;;;;;;;21.69;29.68;98344.47;5081948;28;1018;-84
2021/04/22 11:01:31;;;;;;;;;;;;;;;21.71;29.89;98337.16;5083728;28;1039;-82
2021/04/22 11:04:04;;;;;;;;;;;;;;;21.81;30.01;98346.63;5082589;28;1957;-84
2021/04/22 11:06:33;;;;;;;;;;;;;;;22.08;30.04;98343.63;5075330;28;1066;-84
2021/04/22 11:09:09;;;;;;;;;;;;;;;22.41;29.34;98344.47;5054543;28;1565;-85
2021/04/22 11:11:35;;;;;;;;;;;;;;;21.92;29.82;98326.59;5063253;28;1281;-84
2021/04/22 11:14:03;;;;;;;;;;;;;;;21.73;29.84;98329.00;5082561;28;899;-85
2021/04/22 11:16:29;;;;;;;;;;;;;;;21.84;29.59;98329.56;5084320;28;729;-84
2021/04/22 11:18:55;;;;;;;;;;;;;;;21.78;29.55;98325.66;5082941;28;926;-84
2021/04/22 11:21:32;;;;;;;;;;;;;;;21.66;29.77;98326.34;5066906;28;1008;-84
2021/04/22 11:23:58;;;;;;;;;;;;;;;21.47;29.79;98324.31;5082115;28;1901;-83
2021/04/22 11:26:25;;;;;;;;;;;;;;;21.49;29.83;98314.13;5083247;28;913;-84
2021/04/22 11:28:51;;;;;;;;;;;;;;;21.41;30.21;98312.72;5082660;28;970;-84
2021/04/22 11:31:18;;;;;;;;;;;;;;;21.57;30.28;98306.31;5083251;28;932;-84
2021/04/22 11:33:44;;;;;;;;;;;;;;;21.99;29.60;98309.41;5080267;28;1133;-82
2021/04/22 11:36:10;;;;;;;;;;;;;;;22.38;28.79;98314.16;5081864;28;876;-83
2021/04/22 11:38:35;;;;;;;;;;;;;;;22.02;29.32;98302.84;5082402;28;614;-82
2021/04/22 11:41:05;;;;;;;;;;;;;;;21.74;29.70;98307.94;5098180;28;1146;-82
2021/04/22 11:43:30;;;;;;;;;;;;;;;21.58;29.89;98310.72;5080718;28;899;-84
2021/04/22 11:45:56;;;;;;;;;;;;;;;21.58;29.59;98307.91;5065337;28;1942;-82
2021/04/22 11:48:22;;;;;;;;;;;;;;;21.54;29.58;98293.81;5081411;28;659;-81
2021/04/22 11:50:49;;;;;;;;;;;;;;;21.55;29.58;98301.09;5081655;28;967;-85
2021/04/22 11:53:15;;;;;;;;;;;;;;;21.49;29.63;98296.34;5066095;28;1213;-85
2021/04/22 11:55:44;;;;;;;;;;;;;;;21.53;29.29;98297.09;5081586;28;870;-83
2021/04/22 11:58:15;;;;;;;;;;;;;;;21.46;29.33;98291.59;5081483;28;1270;-85
2021/04/22 12:00:57;;;;;;;;;;;;;;;21.75;29.42;98286.88;5064056;28;1172;-83
2021/04/22 12:03:22;;;;;;;;;;;;;;;22.31;28.48;98289.63;5081262;28;933;-82
2021/04/22 12:05:51;;;;;;;;;;;;;;;22.44;28.25;98286.88;5082419;28;1902;-80
2021/04/22 12:08:17;;;;;;;;;;;;;;;21.77;29.09;98281.56;5081751;28;729;-81
2021/04/22 12:10:47;;;;;;;;;;;;;;;21.56;29.31;98282.06;5081754;28;968;-85
2021/04/22 12:13:14;;;;;;;;;;;;;;;21.59;29.31;98284.00;5083088;28;650;-86
2021/04/22 12:15:43;;;;;;;;;;;;;;;21.59;29.13;98275.50;5066558;28;1218;-84
2021/04/22 12:18:09;;;;;;;;;;;;;;;21.57;29.21;98280.81;5064159;28;1215;-85
2021/04/22 12:20:37;;;;;;;;;;;;;;;21.47;29.16;98288.31;5067821;28;1232;-82
2021/04/22 12:23:02;;;;;;;;;;;;;;;21.75;29.39;98283.25;5064064;28;942;-83
2021/04/22 12:25:28;;;;;;;;;;;;;;;22.24;28.42;98284.13;5044925;28;1883;-81
2021/04/22 12:27:56;;;;;;;;;;;;;;;22.33;28.06;98275.81;5063144;28;880;-84
2021/04/22 12:30:25;;;;;;;;;;;;;;;21.88;28.80;98286.19;5048381;28;1346;-86
2021/04/22 12:32:52;;;;;;;;;;;;;;;21.61;29.07;98270.22;5049309;28;1222;-87
2021/04/22 12:35:18;;;;;;;;;;;;;;;21.50;28.97;98266.81;5034221;28;1190;-87
2021/04/22 12:37:43;;;;;;;;;;;;;;;21.52;29.10;98272.84;5066068;28;1139;-88
2021/04/22 12:40:09;;;;;;;;;;;;;;;21.56;28.81;98274.38;5050181;28;1476;-87
2021/04/22 12:42:35;;;;;;;;;;;;;;;21.62;29.37;98277.47;5050229;28;1269;-88
2021/04/22 12:45:02;;;;;;;;;;;;;;;22.09;28.38;98277.19;5067040;28;1965;-88
2021/04/22 12:47:38;;;;;;;;;;;;;;;22.34;27.79;98283.06;5066967;28;1139;-86
2021/04/22 12:50:05;;;;;;;;;;;;;;;22.00;28.24;98268.50;5064662;28;721;-78
2021/04/22 12:52:30;;;;;;;;;;;;;;;21.82;28.67;98274.59;5076510;28;1320;-80
2021/04/22 12:54:56;;;;;;;;;;;;;;;21.65;28.88;98265.25;5079856;28;924;-81